createdAt,value
2022-11-27T00:00:38.055Z,78.90
2022-11-27T00:03:08.260Z,78.65
2022-11-27T00:05:36.971Z,78.59
2022-11-27T00:08:06.896Z,78.69
2022-11-27T00:10:35.560Z,78.72
2022-11-27T00:13:04.242Z,78.49
2022-11-27T00:15:32.874Z,78.43
2022-11-27T00:18:01.506Z,78.41
2022-11-27T00:20:31.792Z,78.35
2022-11-27T00:23:00.487Z,78.49
2022-11-27T00:25:29.315Z,78.53
2022-11-27T00:27:58.669Z,78.47
2022-11-27T00:30:31.924Z,78.59
2022-11-27T00:33:00.551Z,78.64
2022-11-27T00:35:33.341Z,78.60
2022-11-27T00:38:02.635Z,78.53
2022-11-27T00:40:31.276Z,78.61
2022-11-27T00:43:01.525Z,78.53
2022-11-27T00:45:30.542Z,78.52
2022-11-27T00:47:59.510Z,78.42
2022-11-27T00:50:32.092Z,78.48
2022-11-27T00:53:02.366Z,78.67
2022-11-27T00:55:31.006Z,78.67
2022-11-27T00:57:59.750Z,78.81
2022-11-27T01:00:28.366Z,78.75
2022-11-27T01:02:57.054Z,78.73
2022-11-27T01:05:27.126Z,78.55
2022-11-27T01:07:56.448Z,78.28
2022-11-27T01:10:26.846Z,78.26
2022-11-27T01:12:56.974Z,78.28
2022-11-27T01:15:27.628Z,78.20
2022-11-27T01:17:57.779Z,78.28
2022-11-27T01:20:26.437Z,78.36
2022-11-27T01:23:02.333Z,78.23
2022-11-27T01:25:36.365Z,78.25
2022-11-27T01:28:06.968Z,78.42
2022-11-27T01:30:38.704Z,78.41
2022-11-27T01:33:08.701Z,78.48
2022-11-27T01:35:37.636Z,78.65
2022-11-27T01:38:08.722Z,78.70
2022-11-27T01:40:38.830Z,78.56
2022-11-27T01:43:12.953Z,78.53
2022-11-27T01:45:43.339Z,78.42
2022-11-27T01:48:15.660Z,78.53
2022-11-27T01:50:45.621Z,78.26
2022-11-27T01:53:20.569Z,78.20
2022-11-27T01:55:59.130Z,78.23
2022-11-27T01:58:32.549Z,78.51
2022-11-27T02:01:03.318Z,78.51
2022-11-27T02:03:32.025Z,78.40
2022-11-27T02:06:01.322Z,78.19
2022-11-27T02:08:30.120Z,78.10
2022-11-27T02:11:09.481Z,78.08
2022-11-27T02:13:43.718Z,78.41
2022-11-27T02:16:26.858Z,78.30
2022-11-27T02:19:08.664Z,78.18
2022-11-27T02:21:49.555Z,78.21
2022-11-27T02:24:53.414Z,77.96
2022-11-27T02:28:01.718Z,77.69
2022-11-27T02:30:42.414Z,77.60
2022-11-27T02:33:24.867Z,77.59
2022-11-27T02:36:01.691Z,77.51
2022-11-27T02:38:44.013Z,77.60
2022-11-27T02:41:26.053Z,77.97
2022-11-27T02:43:59.825Z,78.01
2022-11-27T02:46:32.194Z,78.08
2022-11-27T02:49:08.838Z,78.30
2022-11-27T02:51:41.698Z,78.44
2022-11-27T02:54:19.755Z,78.50
2022-11-27T02:56:52.783Z,78.25
2022-11-27T02:59:24.399Z,78.33
2022-11-27T03:02:00.847Z,78.35
2022-11-27T03:04:36.217Z,78.06
2022-11-27T03:07:12.460Z,77.96
2022-11-27T03:09:48.141Z,77.94
2022-11-27T03:12:20.695Z,77.71
2022-11-27T03:14:50.475Z,77.97
2022-11-27T03:17:38.211Z,77.98
2022-11-27T03:20:16.741Z,77.88
2022-11-27T03:22:48.258Z,77.86
2022-11-27T03:25:17.360Z,78.11
2022-11-27T03:27:58.094Z,78.43
2022-11-27T03:30:27.001Z,78.08
2022-11-27T03:32:57.517Z,78.05
2022-11-27T03:35:28.572Z,77.87
2022-11-27T03:37:58.823Z,77.91
2022-11-27T03:40:42.539Z,77.99
2022-11-27T03:43:24.410Z,78.10
2022-11-27T03:46:00.265Z,77.94
2022-11-27T03:48:40.166Z,77.64
2022-11-27T03:51:20.982Z,77.67
2022-11-27T03:54:00.417Z,77.48
2022-11-27T03:56:39.340Z,77.89
2022-11-27T03:59:15.328Z,77.95
2022-11-27T04:01:44.416Z,78.05
2022-11-27T04:04:14.649Z,77.88
2022-11-27T04:06:43.640Z,77.90
2022-11-27T04:09:13.474Z,77.82
2022-11-27T04:11:42.319Z,77.65
2022-11-27T04:14:14.131Z,77.45
2022-11-27T04:16:42.885Z,77.74
2022-11-27T04:19:13.200Z,77.73
2022-11-27T04:21:42.969Z,77.80
2022-11-27T04:24:11.741Z,77.69
2022-11-27T04:26:44.893Z,77.58
2022-11-27T04:29:15.093Z,77.66
2022-11-27T04:31:43.958Z,77.56
2022-11-27T04:34:14.067Z,77.67
2022-11-27T04:36:42.971Z,77.60
2022-11-27T04:39:13.275Z,77.32
2022-11-27T04:41:43.696Z,77.28
2022-11-27T04:44:13.099Z,77.33
2022-11-27T04:46:42.648Z,77.13
2022-11-27T04:49:11.498Z,77.27
2022-11-27T04:51:41.619Z,77.36
2022-11-27T04:54:16.777Z,77.40
2022-11-27T04:56:52.505Z,77.48
2022-11-27T04:59:21.488Z,77.41
2022-11-27T05:01:50.551Z,77.77
2022-11-27T05:04:19.836Z,77.99
2022-11-27T05:06:50.113Z,77.66
2022-11-27T05:09:19.396Z,77.77
2022-11-27T05:11:48.144Z,77.75
2022-11-27T05:14:18.026Z,77.98
2022-11-27T05:16:49.900Z,77.97
2022-11-27T05:19:21.276Z,77.96
2022-11-27T05:21:52.629Z,77.96
2022-11-27T05:24:23.901Z,77.93
2022-11-27T05:26:53.367Z,77.93
2022-11-27T05:29:22.996Z,78.03
2022-11-27T05:31:52.539Z,77.91
2022-11-27T05:34:21.600Z,77.90
2022-11-27T05:36:51.956Z,77.99
2022-11-27T05:39:29.056Z,78.18
2022-11-27T05:41:57.707Z,78.12
2022-11-27T05:44:28.794Z,78.32
2022-11-27T05:46:58.071Z,78.39
2022-11-27T05:49:26.782Z,78.18
2022-11-27T05:51:58.257Z,78.35
2022-11-27T05:54:29.287Z,78.41
2022-11-27T05:56:58.079Z,78.50
2022-11-27T05:59:26.774Z,78.52
2022-11-27T06:01:55.677Z,78.42
2022-11-27T06:04:24.495Z,78.41
2022-11-27T06:06:53.723Z,78.44
2022-11-27T06:09:23.708Z,78.53
2022-11-27T06:11:52.567Z,78.55
2022-11-27T06:14:21.502Z,78.59
2022-11-27T06:16:50.434Z,78.55
2022-11-27T06:19:19.426Z,78.60
2022-11-27T06:21:49.412Z,78.75
2022-11-27T06:24:21.069Z,78.71
2022-11-27T06:26:54.146Z,78.84
2022-11-27T06:29:33.733Z,79.01
2022-11-27T06:32:08.529Z,79.15
2022-11-27T06:34:46.699Z,79.26
2022-11-27T06:37:21.614Z,79.26
2022-11-27T06:39:58.095Z,79.31
2022-11-27T06:42:34.041Z,79.24
2022-11-27T06:45:10.392Z,79.33
2022-11-27T06:47:39.577Z,79.27
2022-11-27T06:50:09.909Z,79.28
2022-11-27T06:52:40.650Z,79.19
2022-11-27T06:55:25.294Z,79.11
2022-11-27T06:57:55.887Z,79.20
2022-11-27T07:00:26.523Z,79.17
2022-11-27T07:02:57.771Z,79.09
2022-11-27T07:05:30.612Z,79.10
2022-11-27T07:08:02.102Z,79.15
2022-11-27T07:10:41.547Z,79.33
2022-11-27T07:13:11.581Z,79.35
2022-11-27T07:15:45.512Z,79.36
2022-11-27T07:18:17.840Z,79.20
2022-11-27T07:21:08.467Z,79.04
2022-11-27T07:23:39.633Z,78.89
2022-11-27T07:26:18.772Z,78.92
2022-11-27T07:28:51.796Z,78.85
2022-11-27T07:31:26.035Z,78.88
2022-11-27T07:34:07.211Z,78.92
2022-11-27T07:37:08.714Z,79.09
2022-11-27T07:40:00.978Z,78.74
2022-11-27T07:42:48.117Z,78.61
2022-11-27T07:45:28.641Z,79.03
2022-11-27T07:48:00.333Z,79.26
2022-11-27T07:50:29.072Z,79.13
2022-11-27T07:52:57.788Z,78.98
2022-11-27T07:55:26.517Z,79.05
2022-11-27T07:57:55.515Z,78.98
2022-11-27T08:00:25.888Z,79.05
2022-11-27T08:02:55.293Z,79.17
2022-11-27T08:05:24.142Z,79.16
2022-11-27T08:07:53.092Z,79.20
2022-11-27T08:10:23.591Z,79.09
2022-11-27T08:12:52.232Z,79.39
2022-11-27T08:15:22.814Z,79.49
2022-11-27T08:17:53.033Z,79.40
2022-11-27T08:20:22.261Z,79.46
2022-11-27T08:22:54.236Z,79.62
2022-11-27T08:25:27.778Z,79.28
2022-11-27T08:27:56.508Z,79.47
2022-11-27T08:30:25.666Z,79.55
2022-11-27T08:32:57.379Z,79.38
2022-11-27T08:35:28.758Z,79.55
2022-11-27T08:37:58.150Z,79.71
2022-11-27T08:40:29.165Z,79.64
2022-11-27T08:43:01.214Z,79.65
2022-11-27T08:45:29.935Z,79.79
2022-11-27T08:48:00.411Z,79.61
2022-11-27T08:50:29.020Z,79.49
2022-11-27T08:52:58.950Z,79.58
2022-11-27T08:55:27.558Z,79.36
2022-11-27T08:57:56.428Z,79.22
2022-11-27T09:00:28.070Z,79.25
2022-11-27T09:02:57.821Z,79.12
2022-11-27T09:05:28.190Z,78.92
2022-11-27T09:07:57.519Z,78.84
2022-11-27T09:10:26.565Z,79.10
2022-11-27T09:12:57.129Z,78.76
2022-11-27T09:15:25.806Z,79.10
2022-11-27T09:17:54.529Z,78.86
2022-11-27T09:20:23.269Z,79.00
2022-11-27T09:22:53.474Z,79.02
2022-11-27T09:25:31.551Z,79.23
2022-11-27T09:28:00.720Z,79.35
2022-11-27T09:30:30.057Z,79.51
2022-11-27T09:33:02.211Z,79.36
2022-11-27T09:35:32.514Z,79.38
2022-11-27T09:38:03.224Z,79.50
2022-11-27T09:40:32.208Z,79.46
2022-11-27T09:43:08.300Z,78.98
2022-11-27T09:45:48.249Z,79.01
2022-11-27T09:48:24.216Z,79.06
2022-11-27T09:50:55.535Z,79.26
2022-11-27T09:53:39.518Z,79.58
2022-11-27T09:56:15.514Z,79.48
2022-11-27T09:58:49.233Z,79.87
2022-11-27T10:01:28.591Z,79.66
2022-11-27T10:04:03.285Z,79.66
2022-11-27T10:06:41.783Z,79.43
2022-11-27T10:09:26.270Z,79.45
2022-11-27T10:12:07.603Z,79.42
2022-11-27T10:14:52.529Z,79.44
2022-11-27T10:17:28.841Z,79.81
2022-11-27T10:20:09.900Z,79.82
2022-11-27T10:22:51.801Z,79.50
2022-11-27T10:25:29.680Z,79.27
2022-11-27T10:28:18.412Z,79.16
2022-11-27T10:30:54.058Z,79.50
2022-11-27T10:33:38.005Z,79.50
2022-11-27T10:36:15.083Z,79.20
2022-11-27T10:38:46.010Z,79.07
2022-11-27T10:44:29.796Z,79.00
2022-11-27T10:47:03.708Z,79.15
2022-11-27T10:49:33.217Z,79.20
2022-11-27T10:52:08.049Z,79.15
2022-11-27T10:55:20.664Z,79.09
2022-11-27T10:58:24.276Z,79.04
2022-11-27T11:01:03.412Z,79.19
2022-11-27T11:03:47.255Z,79.35
2022-11-27T11:06:22.618Z,79.41
2022-11-27T11:09:07.805Z,79.42
2022-11-27T11:11:36.516Z,79.60
2022-11-27T11:14:19.264Z,79.67
2022-11-27T11:16:57.594Z,79.51
2022-11-27T11:19:40.556Z,79.32
2022-11-27T11:22:16.827Z,79.43
2022-11-27T11:24:49.793Z,79.44
2022-11-27T11:27:24.581Z,79.35
2022-11-27T11:30:01.672Z,79.28
2022-11-27T11:32:40.610Z,79.07
2022-11-27T11:35:24.379Z,78.89
2022-11-27T11:37:54.471Z,78.82
2022-11-27T11:40:27.893Z,78.94
2022-11-27T11:43:00.375Z,79.25
2022-11-27T11:45:33.436Z,79.44
2022-11-27T11:48:17.691Z,79.33
2022-11-27T11:50:54.350Z,79.44
2022-11-27T11:53:36.768Z,79.66
2022-11-27T11:56:21.908Z,79.46
2022-11-27T11:58:58.786Z,79.75
2022-11-27T12:02:03.065Z,79.76
2022-11-27T12:05:03.684Z,79.60
2022-11-27T12:07:55.489Z,79.68
2022-11-27T12:10:32.044Z,79.51
2022-11-27T12:13:16.164Z,79.37
2022-11-27T12:15:54.248Z,79.62
2022-11-27T12:18:31.752Z,79.69
2022-11-27T12:21:16.259Z,79.85
2022-11-27T12:24:06.391Z,80.00
2022-11-27T12:26:57.743Z,79.77
2022-11-27T12:30:14.399Z,79.97
2022-11-27T12:33:19.278Z,79.92
2022-11-27T12:36:06.819Z,79.80
2022-11-27T12:38:58.285Z,80.11
2022-11-27T12:42:01.979Z,80.22
2022-11-27T12:44:47.832Z,80.19
2022-11-27T12:47:25.618Z,80.42
2022-11-27T12:50:00.737Z,80.42
2022-11-27T12:52:40.708Z,80.46
2022-11-27T12:55:17.876Z,80.38
2022-11-27T12:57:52.575Z,80.62
2022-11-27T13:00:26.395Z,80.63
2022-11-27T13:03:07.831Z,80.61
2022-11-27T13:05:46.010Z,80.66
2022-11-27T13:08:26.599Z,80.69
2022-11-27T13:11:04.034Z,80.77
2022-11-27T13:13:40.302Z,80.69
2022-11-27T13:16:18.884Z,80.68
2022-11-27T13:18:58.620Z,80.82
2022-11-27T13:21:34.208Z,80.90
2022-11-27T13:24:07.536Z,80.78
2022-11-27T13:26:47.850Z,80.76
2022-11-27T13:29:30.535Z,80.90
2022-11-27T13:32:07.762Z,80.87
2022-11-27T13:34:46.943Z,80.90
2022-11-27T13:37:31.169Z,80.90
2022-11-27T13:40:08.805Z,80.82
2022-11-27T13:42:45.473Z,80.85
2022-11-27T13:45:24.246Z,81.00
2022-11-27T13:47:56.180Z,80.98
2022-11-27T13:50:31.297Z,80.94
2022-11-27T13:53:05.020Z,81.02
2022-11-27T13:55:38.535Z,80.94
2022-11-27T13:58:08.548Z,80.95
2022-11-27T14:00:44.196Z,80.87
2022-11-27T14:03:25.566Z,81.00
2022-11-27T14:05:57.073Z,81.01
2022-11-27T14:08:33.482Z,80.99
2022-11-27T14:11:08.734Z,80.92
2022-11-27T14:13:43.251Z,80.88
2022-11-27T14:16:29.515Z,80.77
2022-11-27T14:19:01.591Z,80.79
2022-11-27T14:21:45.363Z,80.87
2022-11-27T14:24:41.403Z,80.84
2022-11-27T14:27:23.242Z,81.00
2022-11-27T14:29:55.954Z,80.93
2022-11-27T14:32:47.441Z,81.02
2022-11-27T14:35:22.763Z,81.03
2022-11-27T14:37:52.617Z,81.08
2022-11-27T14:40:26.661Z,80.74
2022-11-27T14:43:10.379Z,80.90
2022-11-27T14:45:45.712Z,81.02
2022-11-27T14:48:24.139Z,81.02
2022-11-27T14:50:57.031Z,81.02
2022-11-27T14:53:29.457Z,81.05
2022-11-27T14:56:00.289Z,80.96
2022-11-27T14:58:31.830Z,80.87
2022-11-27T15:01:05.631Z,80.70
2022-11-27T15:03:37.198Z,80.73
2022-11-27T15:06:09.171Z,80.71
2022-11-27T15:08:40.298Z,80.66
2022-11-27T15:11:09.093Z,80.52
2022-11-27T15:13:39.961Z,80.56
2022-11-27T15:16:17.310Z,80.74
2022-11-27T15:18:53.513Z,80.74
2022-11-27T15:21:26.605Z,80.90
2022-11-27T15:23:59.423Z,80.91
2022-11-27T15:26:34.945Z,80.76
2022-11-27T15:29:05.292Z,80.71
2022-11-27T15:31:37.497Z,80.72
2022-11-27T15:34:22.259Z,80.76
2022-11-27T15:36:58.702Z,80.67
2022-11-27T15:39:36.667Z,80.74
2022-11-27T15:42:14.636Z,80.76
2022-11-27T15:44:45.117Z,80.59
2022-11-27T15:47:25.296Z,80.66
2022-11-27T15:49:53.899Z,80.64
2022-11-27T15:52:23.082Z,80.81
2022-11-27T15:54:52.425Z,80.90
2022-11-27T15:57:21.353Z,80.84
2022-11-27T15:59:51.395Z,80.84
2022-11-27T16:02:20.139Z,80.86
2022-11-27T16:04:48.809Z,80.57
2022-11-27T16:07:17.718Z,80.74
2022-11-27T16:09:46.419Z,80.90
2022-11-27T16:12:15.071Z,80.91
2022-11-27T16:14:43.861Z,80.72
2022-11-27T16:17:13.923Z,80.74
2022-11-27T16:19:42.677Z,80.89
2022-11-27T16:22:12.138Z,80.75
2022-11-27T16:24:42.180Z,80.85
2022-11-27T16:27:11.037Z,80.81
2022-11-27T16:29:39.746Z,81.08
2022-11-27T16:32:08.660Z,81.01
2022-11-27T16:34:40.380Z,80.92
2022-11-27T16:37:14.264Z,80.95
2022-11-27T16:39:45.750Z,81.01
2022-11-27T16:42:15.030Z,81.05
2022-11-27T16:44:44.483Z,81.01
2022-11-27T16:47:13.170Z,80.96
2022-11-27T16:49:43.982Z,81.03
2022-11-27T16:52:12.807Z,80.96
2022-11-27T16:54:42.475Z,81.11
2022-11-27T16:57:11.293Z,81.04
2022-11-27T16:59:41.511Z,81.19
2022-11-27T17:02:14.582Z,81.15
2022-11-27T17:04:45.455Z,81.15
2022-11-27T17:07:21.180Z,81.08
2022-11-27T17:09:52.264Z,81.23
2022-11-27T17:12:22.867Z,81.13
2022-11-27T17:14:52.332Z,80.99
2022-11-27T17:17:20.981Z,80.95
2022-11-27T17:19:55.078Z,80.85
2022-11-27T17:22:24.483Z,80.98
2022-11-27T17:24:55.545Z,80.89
2022-11-27T17:27:25.279Z,80.77
2022-11-27T17:29:54.830Z,80.88
2022-11-27T17:32:25.749Z,80.74
2022-11-27T17:34:56.952Z,80.83
2022-11-27T17:37:25.991Z,80.79
2022-11-27T17:39:56.091Z,80.85
2022-11-27T17:42:26.038Z,80.72
2022-11-27T17:44:57.153Z,80.99
2022-11-27T17:47:25.806Z,80.85
2022-11-27T17:49:56.120Z,80.92
2022-11-27T17:52:24.797Z,80.79
2022-11-27T17:54:54.123Z,80.68
2022-11-27T17:57:23.264Z,81.01
2022-11-27T17:59:52.337Z,81.07
2022-11-27T18:02:21.136Z,81.07
2022-11-27T18:04:49.797Z,81.05
2022-11-27T18:07:21.948Z,80.95
2022-11-27T18:09:54.264Z,80.98
2022-11-27T18:12:24.156Z,80.99
2022-11-27T18:15:01.058Z,81.06
2022-11-27T18:17:32.135Z,81.15
2022-11-27T18:20:00.776Z,81.34
2022-11-27T18:22:31.152Z,81.32
2022-11-27T18:24:59.903Z,81.13
2022-11-27T18:27:30.421Z,81.44
2022-11-27T18:29:59.066Z,81.36
2022-11-27T18:32:28.084Z,81.30
2022-11-27T18:34:56.882Z,81.31
2022-11-27T18:37:25.656Z,81.36
2022-11-27T18:39:55.781Z,81.44
2022-11-27T18:42:24.680Z,81.44
2022-11-27T18:44:53.564Z,81.41
2022-11-27T18:47:22.273Z,81.47
2022-11-27T18:49:50.875Z,81.54
2022-11-27T18:52:20.096Z,81.47
2022-11-27T18:54:48.777Z,81.31
2022-11-27T18:57:20.326Z,81.26
2022-11-27T18:59:51.039Z,81.30
2022-11-27T19:02:21.408Z,81.31
2022-11-27T19:04:52.211Z,81.47
2022-11-27T19:07:20.877Z,81.49
2022-11-27T19:09:49.647Z,81.61
2022-11-27T19:12:19.734Z,81.39
2022-11-27T19:14:48.748Z,81.38
2022-11-27T19:17:18.610Z,81.30
2022-11-27T19:19:55.794Z,81.45
2022-11-27T19:22:25.042Z,81.29
2022-11-27T19:24:57.000Z,81.42
2022-11-27T19:27:27.087Z,81.36
2022-11-27T19:29:55.816Z,81.51
2022-11-27T19:32:24.795Z,81.43
2022-11-27T19:34:54.521Z,81.55
2022-11-27T19:37:34.010Z,81.44
2022-11-27T19:40:05.127Z,81.61
2022-11-27T19:42:35.537Z,81.46
2022-11-27T19:45:04.242Z,81.59
2022-11-27T19:47:34.129Z,81.63
2022-11-27T19:50:02.804Z,81.53
2022-11-27T19:52:34.296Z,81.53
2022-11-27T19:55:05.699Z,81.59
2022-11-27T19:57:38.881Z,81.49
2022-11-27T20:00:10.191Z,81.49
2022-11-27T20:02:49.604Z,81.63
2022-11-27T20:05:20.048Z,81.41
2022-11-27T20:08:10.362Z,81.53
2022-11-27T20:10:39.956Z,81.52
2022-11-27T20:13:10.655Z,81.80
2022-11-27T20:15:41.205Z,81.56
2022-11-27T20:18:10.506Z,81.48
2022-11-27T20:20:40.056Z,81.53
2022-11-27T20:23:08.841Z,81.66
2022-11-27T20:25:40.578Z,81.68
2022-11-27T20:28:11.944Z,81.69
2022-11-27T20:30:41.224Z,81.58
2022-11-27T20:33:13.230Z,81.69
2022-11-27T20:35:43.762Z,81.92
2022-11-27T20:38:12.760Z,81.96
2022-11-27T20:40:41.529Z,81.91
2022-11-27T20:43:11.663Z,81.90
2022-11-27T20:45:42.643Z,82.01
2022-11-27T20:48:13.350Z,82.13
2022-11-27T20:50:49.817Z,81.90
2022-11-27T20:53:20.923Z,82.06
2022-11-27T20:55:49.575Z,82.29
2022-11-27T20:58:19.774Z,82.21
2022-11-27T21:00:48.561Z,82.20
2022-11-27T21:03:17.263Z,82.09
2022-11-27T21:05:50.744Z,82.29
2022-11-27T21:08:23.349Z,82.21
2022-11-27T21:10:52.508Z,82.09
2022-11-27T21:13:23.711Z,82.17
2022-11-27T21:15:53.398Z,82.00
2022-11-27T21:18:22.135Z,82.08
2022-11-27T21:20:52.604Z,82.07
2022-11-27T21:23:21.709Z,82.14
2022-11-27T21:25:50.927Z,82.16
2022-11-27T21:28:23.145Z,82.22
2022-11-27T21:30:53.581Z,82.10
2022-11-27T21:33:22.334Z,82.05
2022-11-27T21:35:56.757Z,82.27
2022-11-27T21:38:26.408Z,82.33
2022-11-27T21:40:57.911Z,82.04
2022-11-27T21:43:31.677Z,82.15
2022-11-27T21:46:07.450Z,82.28
2022-11-27T21:48:36.340Z,82.31
2022-11-27T21:51:07.138Z,82.32
2022-11-27T21:53:36.232Z,82.29
2022-11-27T21:56:08.118Z,82.26
2022-11-27T21:58:41.376Z,82.38
2022-11-27T22:01:15.395Z,82.30
2022-11-27T22:03:47.022Z,82.42
2022-11-27T22:06:17.928Z,82.32
2022-11-27T22:08:50.552Z,82.44
2022-11-27T22:11:24.365Z,82.26
2022-11-27T22:13:58.738Z,82.37
2022-11-27T22:16:33.361Z,82.54
2022-11-27T22:19:04.312Z,82.50
2022-11-27T22:21:34.426Z,82.55
2022-11-27T22:24:07.017Z,82.67
2022-11-27T22:26:35.695Z,82.54
2022-11-27T22:29:06.843Z,82.43
2022-11-27T22:31:38.101Z,82.44
2022-11-27T22:34:07.367Z,82.52
2022-11-27T22:36:36.870Z,82.48
2022-11-27T22:39:08.847Z,82.22
2022-11-27T22:41:40.049Z,82.40
2022-11-27T22:44:17.583Z,82.48
2022-11-27T22:46:49.005Z,82.50
2022-11-27T22:49:21.050Z,82.51
2022-11-27T22:51:51.888Z,82.26
2022-11-27T22:54:25.210Z,82.29
2022-11-27T22:56:54.941Z,82.55
2022-11-27T22:59:34.298Z,82.34
2022-11-27T23:02:07.738Z,82.38
2022-11-27T23:04:38.490Z,82.40
2022-11-27T23:07:09.162Z,82.26
2022-11-27T23:09:39.365Z,82.35
2022-11-27T23:12:08.703Z,82.18
2022-11-27T23:14:39.471Z,82.24
2022-11-27T23:17:08.611Z,82.30
2022-11-27T23:19:37.733Z,82.37
2022-11-27T23:22:06.722Z,82.31
2022-11-27T23:24:35.361Z,82.56
2022-11-27T23:27:04.152Z,82.50
2022-11-27T23:29:33.390Z,82.60
2022-11-27T23:32:03.744Z,82.69
2022-11-27T23:34:32.887Z,82.67
2022-11-27T23:37:01.590Z,82.55
2022-11-27T23:39:30.308Z,82.61
2022-11-27T23:41:58.942Z,82.61
2022-11-27T23:44:28.803Z,82.49
2022-11-27T23:46:58.083Z,82.62
2022-11-27T23:49:28.452Z,82.52
2022-11-27T23:51:59.995Z,82.57
2022-11-27T23:54:33.561Z,82.60
2022-11-27T23:57:03.407Z,82.55
2022-11-27T23:59:33.154Z,82.55
